CNB2 weather

Bolton Heliport
Bolton, Ontario, Canada

Public forecast

Using degrees Celsius for public forecast. Weather courtesy of forecast.io.

METAR (pilot weather report)

Closest report is Lester B. Pearson International Airport, 10.9 nm (20.1 km) SSE. Retrieved 2019/05/25 17:00 UTC (3 minutes ago):

CYYZ 251700Z 11007G15KT 6SM BR BKN005 16/15 A2992 RMK SC7 SLP135 DENSITY ALT 800FT

TAF (pilot weather forecast)

Closest forecast is Lester B. Pearson International Airport, 10.9 nm (20.1 km) SSE. Retrieved 2019/05/25 15:39 UTC (1 hour ago):

TAF CYYZ 251438Z 2515/2618 14008KT P6SM -SHRA SCT002 OVC025 TEMPO 2515/2520 3SM -SHRA BR BKN002 OVC020 PROB30 2516/2517 VRB15G25KT 2SM TSRA BR BKN002 OVC020CB FM252000 10010KT P6SM -SHRA OVC025 TEMPO 2520/2523 2SM SHRA BR OVC007 PROB30 2520/2523 VRB15G35KT 1SM +TSRA BR BKN005 OVC015CB FM252300 24012G22KT P6SM BKN030 FM260200 25015KT P6SM SKC FM260800 30010G20KT P6SM SCT007 FM261100 31010G20KT P6SM FEW050 FM261500 32010KT P6SM BKN060 RMK NXT FCST BY 251800Z